createdAt,value
2019-05-01T00:01:42.617Z,44.53
2019-05-01T00:05:01.750Z,54.63
2019-05-01T00:08:11.485Z,48.33
2019-05-01T00:11:19.091Z,53.63
2019-05-01T00:14:26.972Z,55.17
2019-05-01T00:17:34.960Z,52.60
2019-05-01T00:20:42.523Z,49.87
2019-05-01T00:23:50.045Z,45.60
2019-05-01T00:26:57.633Z,49.17
2019-05-01T00:30:07.995Z,51.40
2019-05-01T00:33:15.627Z,45.83
2019-05-01T00:36:23.206Z,53.30
2019-05-01T00:39:30.773Z,53.50
2019-05-01T00:42:38.529Z,47.43
2019-05-01T00:45:46.057Z,49.43
2019-05-01T00:48:53.563Z,49.50
2019-05-01T00:52:01.421Z,49.07
2019-05-01T00:55:26.787Z,49.00
2019-05-01T00:58:42.581Z,48.07
2019-05-01T01:02:14.877Z,47.73
2019-05-01T01:05:23.677Z,55.20
2019-05-01T01:08:31.194Z,48.73
2019-05-01T01:11:38.617Z,52.17
2019-05-01T01:14:47.048Z,50.60
2019-05-01T01:17:54.661Z,50.60
2019-05-01T01:21:02.205Z,57.23
2019-05-01T01:24:10.113Z,55.67
2019-05-01T01:27:17.768Z,56.90
2019-05-01T01:30:25.406Z,56.47
2019-05-01T01:33:32.911Z,54.20
2019-05-01T01:36:40.387Z,53.30
2019-05-01T01:39:47.912Z,57.30
2019-05-01T01:42:58.203Z,56.67
2019-05-01T01:46:07.751Z,68.03
2019-05-01T01:49:15.779Z,59.80
2019-05-01T01:52:23.582Z,57.93
2019-05-01T01:55:31.435Z,64.40
2019-05-01T01:58:39.069Z,67.77
2019-05-01T02:02:01.203Z,56.83
2019-05-01T02:05:30.281Z,55.10
2019-05-01T02:08:38.348Z,55.27
2019-05-01T02:11:47.668Z,60.13
2019-05-01T02:14:55.166Z,61.03
2019-05-01T02:18:03.302Z,56.50
2019-05-01T02:21:10.891Z,58.50
2019-05-01T02:24:18.855Z,66.50
2019-05-01T02:27:33.430Z,56.43
2019-05-01T02:30:44.319Z,53.33
2019-05-01T02:33:53.592Z,55.57
2019-05-01T02:37:03.854Z,56.47
2019-05-01T02:40:44.883Z,72.43
2019-05-01T02:43:56.375Z,61.10
2019-05-01T02:47:08.246Z,64.00
2019-05-01T02:50:16.011Z,63.47
2019-05-01T02:53:25.339Z,65.03
2019-05-01T02:56:38.539Z,59.33
2019-05-01T02:59:48.836Z,58.60
2019-05-01T03:02:56.463Z,53.77
2019-05-01T03:06:04.093Z,61.50
2019-05-01T03:09:11.996Z,60.40
2019-05-01T03:12:23.131Z,55.43
2019-05-01T03:15:33.816Z,55.20
2019-05-01T03:18:46.367Z,59.03
2019-05-01T03:22:02.710Z,57.43
2019-05-01T03:25:11.429Z,62.27
2019-05-01T03:28:19.645Z,66.33
2019-05-01T03:31:27.620Z,49.93
2019-05-01T03:34:35.164Z,45.97
2019-05-01T03:37:42.910Z,58.20
2019-05-01T03:40:50.872Z,51.83
2019-05-01T03:43:58.321Z,52.77
2019-05-01T03:47:05.825Z,50.47
2019-05-01T03:50:13.335Z,55.40
2019-05-01T03:53:21.109Z,48.37
2019-05-01T03:56:29.776Z,46.90
2019-05-01T03:59:38.053Z,46.20
2019-05-01T04:02:51.185Z,49.00
2019-05-01T04:05:58.614Z,51.03
2019-05-01T04:09:08.818Z,45.07
2019-05-01T04:12:16.467Z,45.60
2019-05-01T04:15:24.012Z,42.33
2019-05-01T04:18:31.526Z,46.33
2019-05-01T04:21:47.661Z,47.17
2019-05-01T04:24:55.728Z,44.63
2019-05-01T04:28:22.079Z,38.30
2019-05-01T04:31:45.187Z,31.37
2019-05-01T04:34:58.557Z,36.30
2019-05-01T04:38:06.348Z,28.80
2019-05-01T04:41:14.043Z,34.50
2019-05-01T04:44:21.938Z,31.07
2019-05-01T04:47:29.540Z,32.13
2019-05-01T04:50:38.200Z,38.07
2019-05-01T04:53:45.659Z,30.17
2019-05-01T04:56:53.453Z,29.80
2019-05-01T05:00:01.764Z,28.20
2019-05-01T05:03:14.461Z,28.27
2019-05-01T05:06:22.081Z,26.57
2019-05-01T05:09:47.290Z,24.50
2019-05-01T05:13:14.356Z,25.37
2019-05-01T05:16:40.971Z,33.30
2019-05-01T05:19:48.617Z,36.83
2019-05-01T05:22:56.241Z,40.30
2019-05-01T05:26:04.990Z,45.53
2019-05-01T05:29:13.485Z,61.13
2019-05-01T05:32:23.389Z,45.67
2019-05-01T05:35:33.667Z,28.00
2019-05-01T05:39:08.067Z,22.90
2019-05-01T05:42:15.708Z,27.30
2019-05-01T05:45:24.057Z,34.87
2019-05-01T05:48:31.752Z,32.77
2019-05-01T05:52:01.076Z,17.83
2019-05-01T05:55:14.666Z,28.70
2019-05-01T05:58:58.791Z,29.03
2019-05-01T06:02:35.071Z,17.67
2019-05-01T06:06:02.708Z,20.87
2019-05-01T06:09:13.949Z,27.00
2019-05-01T06:12:26.978Z,19.20
2019-05-01T06:15:57.594Z,17.17
2019-05-01T06:19:29.830Z,28.63
2019-05-01T06:22:56.647Z,19.70
2019-05-01T06:26:24.091Z,20.10
2019-05-01T06:29:35.814Z,17.20
2019-05-01T06:32:42.146Z,18.27
2019-05-01T06:35:49.735Z,28.40
2019-05-01T06:38:58.101Z,17.77
2019-05-01T06:42:09.869Z,29.80
2019-05-01T06:45:18.033Z,21.00
2019-05-01T06:48:27.092Z,19.07
2019-05-01T06:51:47.918Z,31.03
2019-05-01T06:54:55.647Z,36.07
2019-05-01T06:58:03.576Z,18.67
2019-05-01T07:01:13.764Z,16.53
2019-05-01T07:04:21.129Z,23.60
2019-05-01T07:07:29.237Z,15.43
2019-05-01T07:10:43.953Z,22.33
2019-05-01T07:13:55.529Z,13.30
2019-05-01T07:17:02.032Z,14.87
2019-05-01T07:20:39.252Z,13.53
2019-05-01T07:23:47.852Z,14.37
2019-05-01T07:26:59.795Z,19.83
2019-05-01T07:30:15.915Z,11.63
2019-05-01T07:33:25.524Z,17.27
2019-05-01T07:36:33.178Z,14.13
2019-05-01T07:39:44.905Z,13.47
2019-05-01T07:42:52.630Z,14.80
2019-05-01T07:46:22.550Z,12.30
2019-05-01T07:49:54.690Z,12.37
2019-05-01T07:53:02.829Z,13.83
2019-05-01T07:56:10.915Z,11.77
2019-05-01T07:59:22.816Z,12.00
2019-05-01T08:02:31.129Z,12.63
2019-05-01T08:05:40.826Z,12.47
2019-05-01T08:08:47.269Z,16.33
2019-05-01T08:11:54.792Z,11.10
2019-05-01T08:15:02.395Z,9.30
2019-05-01T08:18:17.298Z,8.50
2019-05-01T08:21:57.046Z,10.17
2019-05-01T08:25:02.280Z,10.13
2019-05-01T08:28:18.934Z,9.50
2019-05-01T08:31:37.270Z,9.57
2019-05-01T08:34:49.267Z,9.67
2019-05-01T08:37:58.509Z,11.57
2019-05-01T08:41:03.927Z,11.03
2019-05-01T08:44:11.507Z,9.57
2019-05-01T08:47:28.453Z,7.40
2019-05-01T08:50:36.240Z,16.03
2019-05-01T08:53:43.711Z,13.37
2019-05-01T08:56:52.924Z,17.97
2019-05-01T09:00:01.684Z,9.73
2019-05-01T09:03:13.518Z,12.70
2019-05-01T09:06:20.072Z,8.93
2019-05-01T09:09:27.760Z,15.33
2019-05-01T09:12:35.597Z,6.33
2019-05-01T09:15:43.836Z,14.10
2019-05-01T09:18:52.592Z,6.80
2019-05-01T09:22:00.334Z,10.10
2019-05-01T09:25:09.402Z,9.90
2019-05-01T09:28:25.663Z,21.43
2019-05-01T09:31:35.554Z,10.60
2019-05-01T09:34:43.269Z,12.77
2019-05-01T09:37:51.156Z,11.57
2019-05-01T09:41:00.741Z,11.03
2019-05-01T09:44:10.613Z,9.50
2019-05-01T09:47:17.958Z,12.53
2019-05-01T09:50:30.329Z,7.80
2019-05-01T09:53:48.326Z,10.47
2019-05-01T09:56:55.950Z,7.63
2019-05-01T10:00:05.252Z,8.67
2019-05-01T10:03:16.863Z,8.90
2019-05-01T10:06:22.929Z,7.60
2019-05-01T10:09:30.455Z,7.30
2019-05-01T10:12:41.910Z,8.07
2019-05-01T10:15:47.342Z,7.70
2019-05-01T10:18:55.290Z,7.20
2019-05-01T10:22:03.759Z,9.90
2019-05-01T10:25:13.576Z,5.80
2019-05-01T10:28:50.137Z,9.17
2019-05-01T10:32:06.587Z,20.37
2019-05-01T10:35:42.617Z,12.33
2019-05-01T10:38:45.006Z,14.77
2019-05-01T10:41:51.391Z,22.80
2019-05-01T10:44:58.851Z,9.03
2019-05-01T10:48:06.915Z,20.10
2019-05-01T10:51:16.308Z,14.63
2019-05-01T10:54:24.298Z,11.23
2019-05-01T10:57:35.010Z,9.97
2019-05-01T11:00:43.184Z,7.07
2019-05-01T11:03:50.852Z,9.90
2019-05-01T11:06:58.646Z,10.10
2019-05-01T11:10:07.404Z,13.03
2019-05-01T11:13:15.324Z,11.30
2019-05-01T11:16:23.084Z,10.27
2019-05-01T11:19:31.072Z,9.10
2019-05-01T11:22:38.806Z,9.50
2019-05-01T11:25:46.288Z,10.60
2019-05-01T11:28:53.868Z,11.93
2019-05-01T11:32:18.298Z,9.43
2019-05-01T11:35:44.731Z,13.30
2019-05-01T11:39:11.262Z,11.93
2019-05-01T11:42:18.956Z,8.20
2019-05-01T11:45:27.609Z,8.00
2019-05-01T11:48:35.578Z,9.87
2019-05-01T11:51:43.413Z,11.10
2019-05-01T11:54:51.221Z,7.40
2019-05-01T11:57:58.907Z,10.33
2019-05-01T12:01:07.465Z,9.40
2019-05-01T12:04:15.383Z,12.37
2019-05-01T12:07:22.943Z,11.37
2019-05-01T12:10:30.541Z,12.63
2019-05-01T12:13:43.911Z,12.93
2019-05-01T12:17:04.974Z,8.73
2019-05-01T12:20:13.702Z,9.10
2019-05-01T12:23:21.608Z,16.80
2019-05-01T12:26:29.028Z,12.23
2019-05-01T12:29:36.922Z,12.60
2019-05-01T12:32:44.418Z,16.23
2019-05-01T12:35:53.415Z,13.57
2019-05-01T12:39:00.887Z,10.90
2019-05-01T12:42:10.053Z,11.43
2019-05-01T12:45:17.929Z,15.33
2019-05-01T12:48:25.412Z,13.50
2019-05-01T12:51:33.131Z,10.03
2019-05-01T12:54:53.982Z,11.10
2019-05-01T12:58:01.497Z,11.63
2019-05-01T13:01:08.966Z,15.13
2019-05-01T13:04:16.398Z,19.27
2019-05-01T13:07:24.207Z,9.67
2019-05-01T13:10:31.655Z,12.93
2019-05-01T13:13:39.178Z,13.40
2019-05-01T13:16:46.654Z,8.50
2019-05-01T13:19:54.092Z,12.73
2019-05-01T13:23:01.613Z,10.93
2019-05-01T13:26:30.850Z,8.83
2019-05-01T13:29:42.987Z,9.50
2019-05-01T13:32:51.782Z,8.00
2019-05-01T13:35:59.208Z,13.77
2019-05-01T13:39:09.838Z,14.20
2019-05-01T13:42:17.374Z,8.10
2019-05-01T13:45:24.849Z,9.43
2019-05-01T13:48:32.312Z,7.00
2019-05-01T13:51:39.758Z,10.63
2019-05-01T13:54:47.196Z,10.00
2019-05-01T13:57:54.696Z,8.37
2019-05-01T14:01:02.248Z,10.20
2019-05-01T14:04:11.932Z,10.63
2019-05-01T14:07:19.627Z,11.57
2019-05-01T14:10:27.470Z,10.50
2019-05-01T14:13:35.006Z,9.47
2019-05-01T14:16:42.492Z,7.13
2019-05-01T14:19:59.071Z,8.00
2019-05-01T14:23:11.928Z,8.00
2019-05-01T14:26:19.386Z,8.63
2019-05-01T14:29:26.834Z,13.80
2019-05-01T14:32:34.240Z,9.33
2019-05-01T14:35:41.708Z,8.67
2019-05-01T14:38:49.313Z,8.47
2019-05-01T14:41:56.822Z,8.63
2019-05-01T14:45:05.042Z,7.83
2019-05-01T14:48:12.468Z,9.07
2019-05-01T14:51:21.770Z,9.40
2019-05-01T14:54:29.338Z,8.63
2019-05-01T14:57:36.822Z,8.33
2019-05-01T15:00:44.479Z,9.20
2019-05-01T15:03:51.928Z,8.93
2019-05-01T15:07:00.249Z,6.90
2019-05-01T15:10:08.139Z,8.50
2019-05-01T15:13:26.042Z,9.13
2019-05-01T15:16:38.124Z,9.87
2019-05-01T15:19:55.515Z,9.50
2019-05-01T15:23:03.138Z,8.93
2019-05-01T15:26:10.572Z,12.63
2019-05-01T15:29:18.074Z,9.37
2019-05-01T15:32:25.539Z,8.70
2019-05-01T15:35:34.478Z,10.90
2019-05-01T15:38:41.913Z,7.40
2019-05-01T15:42:10.966Z,8.30
2019-05-01T15:45:20.093Z,9.83
2019-05-01T15:48:27.900Z,10.97
2019-05-01T15:51:36.537Z,7.87
2019-05-01T15:54:44.094Z,9.17
2019-05-01T15:57:51.528Z,11.87
2019-05-01T16:01:00.132Z,8.57
2019-05-01T16:04:07.674Z,7.93
2019-05-01T16:07:15.119Z,8.93
2019-05-01T16:10:27.019Z,8.20
2019-05-01T16:13:34.611Z,9.73
2019-05-01T16:16:42.114Z,8.03
2019-05-01T16:19:49.610Z,12.10
2019-05-01T16:22:57.447Z,12.17
2019-05-01T16:26:05.020Z,9.67
2019-05-01T16:29:12.510Z,10.17
2019-05-01T16:32:20.016Z,10.03
2019-05-01T16:35:27.560Z,9.03
2019-05-01T16:38:49.882Z,9.20
2019-05-01T16:41:57.373Z,11.70
2019-05-01T16:45:06.194Z,11.47
2019-05-01T16:48:13.852Z,11.80
2019-05-01T16:51:28.325Z,14.53
2019-05-01T16:54:35.900Z,10.43
2019-05-01T16:57:43.386Z,10.27
2019-05-01T17:01:06.898Z,12.10
2019-05-01T17:04:28.920Z,16.27
2019-05-01T17:07:44.343Z,16.80
2019-05-01T17:10:51.951Z,18.73
2019-05-01T17:14:01.172Z,17.97
2019-05-01T17:17:39.317Z,17.13
2019-05-01T17:20:50.374Z,20.70
2019-05-01T17:23:57.838Z,20.77
2019-05-01T17:27:05.379Z,16.93
2019-05-01T17:30:18.535Z,19.87
2019-05-01T17:33:26.069Z,20.77
2019-05-01T17:36:33.532Z,19.57
2019-05-01T17:39:40.957Z,22.13
2019-05-01T17:42:49.991Z,25.73
2019-05-01T17:45:57.592Z,22.73
2019-05-01T17:49:09.308Z,23.23
2019-05-01T17:52:14.241Z,24.00
2019-05-01T17:55:21.805Z,25.70
2019-05-01T17:58:29.346Z,27.47
2019-05-01T18:01:57.522Z,27.23
2019-05-01T18:05:27.065Z,27.90
2019-05-01T18:08:34.473Z,28.77
2019-05-01T18:11:42.054Z,37.97
2019-05-01T18:14:49.629Z,32.43
2019-05-01T18:17:57.180Z,35.70
2019-05-01T18:21:04.979Z,37.47
2019-05-01T18:24:30.175Z,40.57
2019-05-01T18:28:02.469Z,37.70
2019-05-01T18:31:15.881Z,41.53
2019-05-01T18:34:23.297Z,48.60
2019-05-01T18:37:36.421Z,46.50
2019-05-01T18:40:49.328Z,41.97
2019-05-01T18:43:56.793Z,42.97
2019-05-01T18:47:04.764Z,43.27
2019-05-01T18:50:13.656Z,53.43
2019-05-01T18:53:21.336Z,55.80
2019-05-01T18:56:29.400Z,49.30
2019-05-01T18:59:36.975Z,54.37
2019-05-01T19:02:44.511Z,51.93
2019-05-01T19:05:52.208Z,50.90
2019-05-01T19:08:59.679Z,44.27
2019-05-01T19:12:09.638Z,38.83
2019-05-01T19:15:17.294Z,38.73
2019-05-01T19:18:24.877Z,35.60
2019-05-01T19:21:32.858Z,40.30
2019-05-01T19:24:41.947Z,40.27
2019-05-01T19:27:49.435Z,36.93
2019-05-01T19:30:57.057Z,43.73
2019-05-01T19:34:04.592Z,44.60
2019-05-01T19:37:16.522Z,39.37
2019-05-01T19:40:24.962Z,46.43
2019-05-01T19:43:35.912Z,37.87
2019-05-01T19:46:41.216Z,35.40
2019-05-01T19:49:48.762Z,36.83
2019-05-01T19:52:57.323Z,30.37
2019-05-01T19:56:04.957Z,30.10
2019-05-01T19:59:12.425Z,35.90
2019-05-01T20:02:22.301Z,41.30
2019-05-01T20:05:29.218Z,37.30
2019-05-01T20:08:36.849Z,42.30
2019-05-01T20:11:44.461Z,40.40
2019-05-01T20:14:52.195Z,43.07
2019-05-01T20:17:59.663Z,43.20
2019-05-01T20:21:07.557Z,41.77
2019-05-01T20:24:15.070Z,31.33
2019-05-01T20:27:23.242Z,44.13
2019-05-01T20:30:30.911Z,37.30
2019-05-01T20:33:40.916Z,53.87
2019-05-01T20:36:47.714Z,50.33
2019-05-01T20:40:09.815Z,66.87
2019-05-01T20:43:07.223Z,57.00
2019-05-01T20:46:15.037Z,63.63
2019-05-01T20:49:22.595Z,63.37
2019-05-01T20:52:30.168Z,65.73
2019-05-01T20:55:37.749Z,56.03
2019-05-01T20:58:45.320Z,54.27
2019-05-01T21:01:52.799Z,55.10
2019-05-01T21:05:24.975Z,44.67
2019-05-01T21:08:41.105Z,42.20
2019-05-01T21:12:04.497Z,47.10
2019-05-01T21:15:00.509Z,29.50
2019-05-01T21:18:08.172Z,28.40
2019-05-01T21:21:15.665Z,24.77
2019-05-01T21:24:24.010Z,26.73
2019-05-01T21:27:33.479Z,35.40
2019-05-01T21:30:43.955Z,39.50
2019-05-01T21:33:50.635Z,35.30
2019-05-01T21:36:58.073Z,36.67
2019-05-01T21:40:06.490Z,37.63
2019-05-01T21:43:14.031Z,43.13
2019-05-01T21:46:22.742Z,47.60
2019-05-01T21:49:33.127Z,52.90
2019-05-01T21:52:40.615Z,55.80
2019-05-01T21:55:48.269Z,57.00
2019-05-01T21:58:59.527Z,52.87
2019-05-01T22:02:09.650Z,53.17
2019-05-01T22:05:14.513Z,54.07
2019-05-01T22:08:22.436Z,51.40
2019-05-01T22:11:33.149Z,58.20
2019-05-01T22:14:45.582Z,53.67
2019-05-01T22:18:03.011Z,52.20
2019-05-01T22:21:19.373Z,52.97
2019-05-01T22:24:47.649Z,54.73
2019-05-01T22:28:01.345Z,60.07
2019-05-01T22:31:36.996Z,63.47
2019-05-01T22:34:48.245Z,66.27
2019-05-01T22:37:55.731Z,72.37
2019-05-01T22:41:08.234Z,86.80
2019-05-01T22:44:18.053Z,84.83
2019-05-01T22:47:24.773Z,94.80
2019-05-01T22:50:32.234Z,93.13
2019-05-01T22:53:39.773Z,98.33
2019-05-01T22:56:47.797Z,81.63
2019-05-01T22:59:55.353Z,84.23
2019-05-01T23:03:07.014Z,70.97
2019-05-01T23:06:14.707Z,70.77
2019-05-01T23:09:28.348Z,68.50
2019-05-01T23:12:32.833Z,70.13
2019-05-01T23:15:40.433Z,71.57
2019-05-01T23:18:51.974Z,74.10
2019-05-01T23:21:58.857Z,59.43
2019-05-01T23:25:07.068Z,63.20
2019-05-01T23:28:14.609Z,63.57
2019-05-01T23:31:22.217Z,60.90
2019-05-01T23:34:29.658Z,56.03
2019-05-01T23:37:37.631Z,59.83
2019-05-01T23:40:51.089Z,52.60
2019-05-01T23:44:01.576Z,56.97
2019-05-01T23:47:05.713Z,55.23
2019-05-01T23:50:13.597Z,50.83
2019-05-01T23:53:21.085Z,55.60
2019-05-01T23:56:31.009Z,54.20
2019-05-01T23:59:37.672Z,53.00
